sensor_id;sensor_type;location;lat;lon;timestamp;temperature;humidity
39519;DHT22;25200;53.394;10.414;2023-07-16T00:00:27;23.50;62.20
39519;DHT22;25200;53.394;10.414;2023-07-16T00:02:53;23.40;62.10
39519;DHT22;25200;53.394;10.414;2023-07-16T00:05:18;23.40;62.10
39519;DHT22;25200;53.394;10.414;2023-07-16T00:07:44;23.40;62.10
39519;DHT22;25200;53.394;10.414;2023-07-16T00:10:10;23.40;62.10
39519;DHT22;25200;53.394;10.414;2023-07-16T00:12:35;23.30;62.10
39519;DHT22;25200;53.394;10.414;2023-07-16T00:15:01;23.30;62.20
39519;DHT22;25200;53.394;10.414;2023-07-16T00:17:26;23.30;62.20
39519;DHT22;25200;53.394;10.414;2023-07-16T00:19:52;23.30;62.20
39519;DHT22;25200;53.394;10.414;2023-07-16T00:22:18;23.20;62.30
39519;DHT22;25200;53.394;10.414;2023-07-16T00:24:43;23.20;62.10
39519;DHT22;25200;53.394;10.414;2023-07-16T00:27:09;23.20;62.20
39519;DHT22;25200;53.394;10.414;2023-07-16T00:29:34;23.20;62.20
39519;DHT22;25200;53.394;10.414;2023-07-16T00:32:00;23.20;62.30
39519;DHT22;25200;53.394;10.414;2023-07-16T00:34:26;23.10;62.40
39519;DHT22;25200;53.394;10.414;2023-07-16T00:36:51;23.10;62.30
39519;DHT22;25200;53.394;10.414;2023-07-16T00:39:17;23.10;62.40
39519;DHT22;25200;53.394;10.414;2023-07-16T00:41:43;23.10;62.40
39519;DHT22;25200;53.394;10.414;2023-07-16T00:44:08;23.10;62.40
39519;DHT22;25200;53.394;10.414;2023-07-16T00:46:34;23.00;62.30
39519;DHT22;25200;53.394;10.414;2023-07-16T00:49:01;23.00;62.40
39519;DHT22;25200;53.394;10.414;2023-07-16T00:51:27;23.00;62.40
39519;DHT22;25200;53.394;10.414;2023-07-16T00:53:53;23.00;62.40
39519;DHT22;25200;53.394;10.414;2023-07-16T00:56:19;23.00;62.50
39519;DHT22;25200;53.394;10.414;2023-07-16T00:58:45;23.00;62.50
39519;DHT22;25200;53.394;10.414;2023-07-16T01:01:11;22.90;62.50
39519;DHT22;25200;53.394;10.414;2023-07-16T01:03:37;22.90;62.40
39519;DHT22;25200;53.394;10.414;2023-07-16T01:06:43;22.90;62.40
39519;DHT22;25200;53.394;10.414;2023-07-16T01:09:17;22.90;62.60
39519;DHT22;25200;53.394;10.414;2023-07-16T01:11:44;22.80;62.70
39519;DHT22;25200;53.394;10.414;2023-07-16T01:14:11;22.70;62.60
39519;DHT22;25200;53.394;10.414;2023-07-16T01:16:37;22.70;62.80
39519;DHT22;25200;53.394;10.414;2023-07-16T01:19:03;22.70;62.80
39519;DHT22;25200;53.394;10.414;2023-07-16T01:30:14;22.50;63.20
39519;DHT22;25200;53.394;10.414;2023-07-16T01:32:42;22.50;63.10
39519;DHT22;25200;53.394;10.414;2023-07-16T01:35:08;22.40;63.30
39519;DHT22;25200;53.394;10.414;2023-07-16T01:37:34;22.40;63.10
39519;DHT22;25200;53.394;10.414;2023-07-16T01:40:00;22.40;63.40
39519;DHT22;25200;53.394;10.414;2023-07-16T01:42:26;22.30;63.40
39519;DHT22;25200;53.394;10.414;2023-07-16T01:44:52;22.30;63.30
39519;DHT22;25200;53.394;10.414;2023-07-16T01:50:08;22.30;63.50
39519;DHT22;25200;53.394;10.414;2023-07-16T01:52:33;22.20;63.40
39519;DHT22;25200;53.394;10.414;2023-07-16T01:54:59;22.20;63.70
39519;DHT22;25200;53.394;10.414;2023-07-16T01:57:25;22.20;63.50
39519;DHT22;25200;53.394;10.414;2023-07-16T01:59:50;22.10;63.60
39519;DHT22;25200;53.394;10.414;2023-07-16T02:02:16;22.10;63.80
39519;DHT22;25200;53.394;10.414;2023-07-16T02:04:41;22.10;63.70
39519;DHT22;25200;53.394;10.414;2023-07-16T02:07:07;22.10;63.70
39519;DHT22;25200;53.394;10.414;2023-07-16T02:09:33;22.10;63.80
39519;DHT22;25200;53.394;10.414;2023-07-16T02:11:59;22.00;63.60
39519;DHT22;25200;53.394;10.414;2023-07-16T02:14:25;22.00;63.80
39519;DHT22;25200;53.394;10.414;2023-07-16T02:16:50;22.00;63.90
39519;DHT22;25200;53.394;10.414;2023-07-16T02:19:16;21.90;63.90
39519;DHT22;25200;53.394;10.414;2023-07-16T02:21:42;21.90;63.90
39519;DHT22;25200;53.394;10.414;2023-07-16T02:24:07;21.90;64.00
39519;DHT22;25200;53.394;10.414;2023-07-16T02:26:33;21.90;64.20
39519;DHT22;25200;53.394;10.414;2023-07-16T02:28:58;21.90;64.10
39519;DHT22;25200;53.394;10.414;2023-07-16T02:31:24;21.90;64.20
39519;DHT22;25200;53.394;10.414;2023-07-16T02:33:50;21.80;64.20
39519;DHT22;25200;53.394;10.414;2023-07-16T02:36:16;21.80;64.50
39519;DHT22;25200;53.394;10.414;2023-07-16T02:38:41;21.80;64.50
39519;DHT22;25200;53.394;10.414;2023-07-16T02:41:07;21.80;64.60
39519;DHT22;25200;53.394;10.414;2023-07-16T02:43:33;21.70;64.30
39519;DHT22;25200;53.394;10.414;2023-07-16T02:45:58;21.70;64.50
39519;DHT22;25200;53.394;10.414;2023-07-16T02:48:24;21.70;64.60
39519;DHT22;25200;53.394;10.414;2023-07-16T02:50:50;21.70;64.70
39519;DHT22;25200;53.394;10.414;2023-07-16T02:53:15;21.70;64.70
39519;DHT22;25200;53.394;10.414;2023-07-16T02:55:41;21.70;64.80
39519;DHT22;25200;53.394;10.414;2023-07-16T02:58:06;21.70;64.80
39519;DHT22;25200;53.394;10.414;2023-07-16T03:00:32;21.60;65.00
39519;DHT22;25200;53.394;10.414;2023-07-16T03:02:59;21.60;64.90
39519;DHT22;25200;53.394;10.414;2023-07-16T03:05:28;21.60;64.70
39519;DHT22;25200;53.394;10.414;2023-07-16T03:07:54;21.50;64.80
39519;DHT22;25200;53.394;10.414;2023-07-16T03:10:20;21.60;65.00
39519;DHT22;25200;53.394;10.414;2023-07-16T03:12:46;21.50;65.00
39519;DHT22;25200;53.394;10.414;2023-07-16T03:15:12;21.50;64.90
39519;DHT22;25200;53.394;10.414;2023-07-16T03:17:37;21.50;65.20
39519;DHT22;25200;53.394;10.414;2023-07-16T03:20:03;21.40;65.10
39519;DHT22;25200;53.394;10.414;2023-07-16T03:22:30;21.50;65.30
39519;DHT22;25200;53.394;10.414;2023-07-16T03:24:56;21.40;65.30
39519;DHT22;25200;53.394;10.414;2023-07-16T03:27:22;21.40;65.00
39519;DHT22;25200;53.394;10.414;2023-07-16T03:29:47;21.40;65.30
39519;DHT22;25200;53.394;10.414;2023-07-16T03:32:13;21.40;65.10
39519;DHT22;25200;53.394;10.414;2023-07-16T03:34:39;21.40;65.30
39519;DHT22;25200;53.394;10.414;2023-07-16T03:37:04;21.40;65.50
39519;DHT22;25200;53.394;10.414;2023-07-16T03:39:30;21.30;65.50
39519;DHT22;25200;53.394;10.414;2023-07-16T03:41:56;21.30;65.40
39519;DHT22;25200;53.394;10.414;2023-07-16T03:44:21;21.30;65.60
39519;DHT22;25200;53.394;10.414;2023-07-16T03:46:47;21.30;65.50
39519;DHT22;25200;53.394;10.414;2023-07-16T03:49:12;21.30;65.50
39519;DHT22;25200;53.394;10.414;2023-07-16T03:51:38;21.20;65.40
39519;DHT22;25200;53.394;10.414;2023-07-16T03:54:04;21.20;65.60
39519;DHT22;25200;53.394;10.414;2023-07-16T03:56:29;21.20;65.70
39519;DHT22;25200;53.394;10.414;2023-07-16T03:58:55;21.20;65.80
39519;DHT22;25200;53.394;10.414;2023-07-16T04:01:21;21.10;65.50
39519;DHT22;25200;53.394;10.414;2023-07-16T04:03:46;21.10;65.40
39519;DHT22;25200;53.394;10.414;2023-07-16T04:06:12;21.10;65.30
39519;DHT22;25200;53.394;10.414;2023-07-16T04:08:38;21.10;65.60
39519;DHT22;25200;53.394;10.414;2023-07-16T04:11:04;21.10;65.50
39519;DHT22;25200;53.394;10.414;2023-07-16T04:13:30;21.10;65.40
39519;DHT22;25200;53.394;10.414;2023-07-16T04:15:56;21.10;65.40
39519;DHT22;25200;53.394;10.414;2023-07-16T04:18:23;21.10;65.60
39519;DHT22;25200;53.394;10.414;2023-07-16T04:20:50;21.10;65.50
39519;DHT22;25200;53.394;10.414;2023-07-16T04:23:15;21.10;65.40
39519;DHT22;25200;53.394;10.414;2023-07-16T04:25:41;21.10;65.80
39519;DHT22;25200;53.394;10.414;2023-07-16T04:28:07;21.10;65.40
39519;DHT22;25200;53.394;10.414;2023-07-16T04:30:32;21.10;65.50
39519;DHT22;25200;53.394;10.414;2023-07-16T04:32:58;21.10;65.40
39519;DHT22;25200;53.394;10.414;2023-07-16T04:35:24;21.00;65.40
39519;DHT22;25200;53.394;10.414;2023-07-16T04:37:49;21.00;65.60
39519;DHT22;25200;53.394;10.414;2023-07-16T04:40:15;21.00;65.80
39519;DHT22;25200;53.394;10.414;2023-07-16T04:42:41;21.00;65.50
39519;DHT22;25200;53.394;10.414;2023-07-16T04:45:07;21.00;65.60
39519;DHT22;25200;53.394;10.414;2023-07-16T04:47:32;21.00;65.80
39519;DHT22;25200;53.394;10.414;2023-07-16T04:49:59;21.00;65.70
39519;DHT22;25200;53.394;10.414;2023-07-16T04:52:24;21.00;65.80
39519;DHT22;25200;53.394;10.414;2023-07-16T04:54:50;21.00;66.30
39519;DHT22;25200;53.394;10.414;2023-07-16T04:57:16;21.00;65.60
39519;DHT22;25200;53.394;10.414;2023-07-16T04:59:41;21.00;65.80
39519;DHT22;25200;53.394;10.414;2023-07-16T05:02:07;21.00;65.70
39519;DHT22;25200;53.394;10.414;2023-07-16T05:04:34;20.90;65.70
39519;DHT22;25200;53.394;10.414;2023-07-16T05:07:01;20.90;65.90
39519;DHT22;25200;53.394;10.414;2023-07-16T05:09:27;20.90;66.20
39519;DHT22;25200;53.394;10.414;2023-07-16T05:11:53;20.90;66.00
39519;DHT22;25200;53.394;10.414;2023-07-16T05:14:19;20.90;66.30
39519;DHT22;25200;53.394;10.414;2023-07-16T05:16:44;20.90;66.20
39519;DHT22;25200;53.394;10.414;2023-07-16T05:19:10;20.90;66.60
39519;DHT22;25200;53.394;10.414;2023-07-16T05:21:36;20.90;66.80
39519;DHT22;25200;53.394;10.414;2023-07-16T05:24:01;20.80;66.90
39519;DHT22;25200;53.394;10.414;2023-07-16T05:26:27;20.90;66.90
39519;DHT22;25200;53.394;10.414;2023-07-16T05:28:53;20.80;66.90
39519;DHT22;25200;53.394;10.414;2023-07-16T05:31:18;20.80;67.00
39519;DHT22;25200;53.394;10.414;2023-07-16T05:33:44;20.80;66.80
39519;DHT22;25200;53.394;10.414;2023-07-16T05:36:09;20.80;66.90
39519;DHT22;25200;53.394;10.414;2023-07-16T05:38:35;20.80;67.10
39519;DHT22;25200;53.394;10.414;2023-07-16T05:41:02;20.80;67.20
39519;DHT22;25200;53.394;10.414;2023-07-16T05:43:28;20.80;67.10
39519;DHT22;25200;53.394;10.414;2023-07-16T05:45:54;20.90;67.10
39519;DHT22;25200;53.394;10.414;2023-07-16T05:48:20;20.80;67.10
39519;DHT22;25200;53.394;10.414;2023-07-16T05:50:46;20.80;67.00
39519;DHT22;25200;53.394;10.414;2023-07-16T05:53:11;20.80;67.00
39519;DHT22;25200;53.394;10.414;2023-07-16T05:55:43;20.90;67.50
39519;DHT22;25200;53.394;10.414;2023-07-16T05:58:08;20.80;67.40
39519;DHT22;25200;53.394;10.414;2023-07-16T06:00:37;20.90;67.60
39519;DHT22;25200;53.394;10.414;2023-07-16T06:03:04;20.90;67.60
39519;DHT22;25200;53.394;10.414;2023-07-16T06:05:30;20.90;67.70
39519;DHT22;25200;53.394;10.414;2023-07-16T06:08:00;20.80;67.50
39519;DHT22;25200;53.394;10.414;2023-07-16T06:10:26;20.90;67.90
39519;DHT22;25200;53.394;10.414;2023-07-16T06:12:52;20.90;67.50
39519;DHT22;25200;53.394;10.414;2023-07-16T06:15:18;20.90;67.50
39519;DHT22;25200;53.394;10.414;2023-07-16T06:17:43;20.90;67.50
39519;DHT22;25200;53.394;10.414;2023-07-16T06:20:09;20.90;67.50
39519;DHT22;25200;53.394;10.414;2023-07-16T06:22:36;20.80;67.40
39519;DHT22;25200;53.394;10.414;2023-07-16T06:25:02;20.90;67.80
39519;DHT22;25200;53.394;10.414;2023-07-16T06:27:27;20.90;67.60
39519;DHT22;25200;53.394;10.414;2023-07-16T06:29:53;20.90;67.60
39519;DHT22;25200;53.394;10.414;2023-07-16T06:32:18;20.90;67.70
39519;DHT22;25200;53.394;10.414;2023-07-16T06:34:44;20.90;67.40
39519;DHT22;25200;53.394;10.414;2023-07-16T06:37:10;20.90;67.80
39519;DHT22;25200;53.394;10.414;2023-07-16T06:39:35;20.90;67.60
39519;DHT22;25200;53.394;10.414;2023-07-16T06:42:01;20.90;67.60
39519;DHT22;25200;53.394;10.414;2023-07-16T06:44:27;20.90;67.50
39519;DHT22;25200;53.394;10.414;2023-07-16T06:46:52;21.00;67.70
39519;DHT22;25200;53.394;10.414;2023-07-16T06:49:18;21.00;67.80
39519;DHT22;25200;53.394;10.414;2023-07-16T06:51:44;21.00;67.60
39519;DHT22;25200;53.394;10.414;2023-07-16T06:54:10;21.00;67.60
39519;DHT22;25200;53.394;10.414;2023-07-16T06:56:35;21.00;67.60
39519;DHT22;25200;53.394;10.414;2023-07-16T06:59:01;21.00;67.10
39519;DHT22;25200;53.394;10.414;2023-07-16T07:01:26;21.00;67.20
39519;DHT22;25200;53.394;10.414;2023-07-16T07:03:53;21.00;67.40
39519;DHT22;25200;53.394;10.414;2023-07-16T07:06:19;21.00;67.10
39519;DHT22;25200;53.394;10.414;2023-07-16T07:08:46;21.10;67.10
39519;DHT22;25200;53.394;10.414;2023-07-16T07:11:12;21.10;67.00
39519;DHT22;25200;53.394;10.414;2023-07-16T07:13:38;21.10;67.00
39519;DHT22;25200;53.394;10.414;2023-07-16T07:16:04;21.10;67.00
39519;DHT22;25200;53.394;10.414;2023-07-16T07:18:29;21.10;66.90
39519;DHT22;25200;53.394;10.414;2023-07-16T07:20:55;21.10;67.00
39519;DHT22;25200;53.394;10.414;2023-07-16T07:23:21;21.20;67.10
39519;DHT22;25200;53.394;10.414;2023-07-16T07:25:50;21.10;67.00
39519;DHT22;25200;53.394;10.414;2023-07-16T07:28:16;21.10;66.80
39519;DHT22;25200;53.394;10.414;2023-07-16T07:30:42;21.10;66.70
39519;DHT22;25200;53.394;10.414;2023-07-16T07:33:08;21.10;66.80
39519;DHT22;25200;53.394;10.414;2023-07-16T07:35:34;21.10;66.70
39519;DHT22;25200;53.394;10.414;2023-07-16T07:38:00;21.10;66.70
39519;DHT22;25200;53.394;10.414;2023-07-16T07:40:26;21.10;66.60
39519;DHT22;25200;53.394;10.414;2023-07-16T07:42:52;21.10;66.40
39519;DHT22;25200;53.394;10.414;2023-07-16T07:45:18;21.10;66.40
39519;DHT22;25200;53.394;10.414;2023-07-16T07:47:43;21.10;66.30
39519;DHT22;25200;53.394;10.414;2023-07-16T07:50:09;21.20;66.30
39519;DHT22;25200;53.394;10.414;2023-07-16T07:52:35;21.20;66.10
39519;DHT22;25200;53.394;10.414;2023-07-16T07:55:01;21.30;66.10
39519;DHT22;25200;53.394;10.414;2023-07-16T07:57:26;21.30;66.00
39519;DHT22;25200;53.394;10.414;2023-07-16T07:59:52;21.30;65.90
39519;DHT22;25200;53.394;10.414;2023-07-16T08:02:22;21.40;66.00
39519;DHT22;25200;53.394;10.414;2023-07-16T08:04:51;21.40;65.90
39519;DHT22;25200;53.394;10.414;2023-07-16T08:07:16;21.50;65.90
39519;DHT22;25200;53.394;10.414;2023-07-16T08:09:42;21.50;65.90
39519;DHT22;25200;53.394;10.414;2023-07-16T08:12:08;21.60;65.70
39519;DHT22;25200;53.394;10.414;2023-07-16T08:14:34;21.70;65.50
39519;DHT22;25200;53.394;10.414;2023-07-16T08:17:00;21.80;65.60
39519;DHT22;25200;53.394;10.414;2023-07-16T08:19:26;21.90;65.40
39519;DHT22;25200;53.394;10.414;2023-07-16T08:21:52;22.00;65.00
39519;DHT22;25200;53.394;10.414;2023-07-16T08:24:17;22.00;64.80
39519;DHT22;25200;53.394;10.414;2023-07-16T08:26:43;22.10;64.90
39519;DHT22;25200;53.394;10.414;2023-07-16T08:29:09;22.10;64.60
39519;DHT22;25200;53.394;10.414;2023-07-16T08:31:34;22.20;64.50
39519;DHT22;25200;53.394;10.414;2023-07-16T08:34:00;22.20;64.40
39519;DHT22;25200;53.394;10.414;2023-07-16T08:36:26;22.20;64.30
39519;DHT22;25200;53.394;10.414;2023-07-16T08:38:51;22.30;64.10
39519;DHT22;25200;53.394;10.414;2023-07-16T08:41:17;22.30;63.90
39519;DHT22;25200;53.394;10.414;2023-07-16T08:43:46;22.30;63.70
39519;DHT22;25200;53.394;10.414;2023-07-16T08:46:13;22.30;63.80
39519;DHT22;25200;53.394;10.414;2023-07-16T08:48:40;22.30;63.80
39519;DHT22;25200;53.394;10.414;2023-07-16T08:51:06;22.30;63.70
39519;DHT22;25200;53.394;10.414;2023-07-16T08:53:32;22.40;63.70
39519;DHT22;25200;53.394;10.414;2023-07-16T08:55:58;22.40;63.60
39519;DHT22;25200;53.394;10.414;2023-07-16T08:58:24;22.40;63.60
39519;DHT22;25200;53.394;10.414;2023-07-16T09:00:51;22.50;63.50
39519;DHT22;25200;53.394;10.414;2023-07-16T09:03:17;22.50;63.20
39519;DHT22;25200;53.394;10.414;2023-07-16T09:05:44;22.50;63.10
39519;DHT22;25200;53.394;10.414;2023-07-16T09:08:10;22.50;63.10
39519;DHT22;25200;53.394;10.414;2023-07-16T09:10:36;22.50;63.10
39519;DHT22;25200;53.394;10.414;2023-07-16T09:13:02;22.60;63.40
39519;DHT22;25200;53.394;10.414;2023-07-16T09:15:29;22.80;63.30
39519;DHT22;25200;53.394;10.414;2023-07-16T09:17:55;23.00;63.20
39519;DHT22;25200;53.394;10.414;2023-07-16T09:20:22;23.10;62.50
39519;DHT22;25200;53.394;10.414;2023-07-16T09:22:53;23.10;62.00
39519;DHT22;25200;53.394;10.414;2023-07-16T09:25:28;23.10;61.80
39519;DHT22;25200;53.394;10.414;2023-07-16T09:27:54;23.00;61.40
39519;DHT22;25200;53.394;10.414;2023-07-16T09:30:20;23.10;61.60
39519;DHT22;25200;53.394;10.414;2023-07-16T09:32:46;23.20;61.80
39519;DHT22;25200;53.394;10.414;2023-07-16T09:35:14;23.50;61.80
39519;DHT22;25200;53.394;10.414;2023-07-16T09:37:44;23.80;59.70
39519;DHT22;25200;53.394;10.414;2023-07-16T09:40:11;24.00;58.20
39519;DHT22;25200;53.394;10.414;2023-07-16T09:42:41;24.30;59.10
39519;DHT22;25200;53.394;10.414;2023-07-16T09:45:12;24.60;59.00
39519;DHT22;25200;53.394;10.414;2023-07-16T09:47:38;24.90;58.70
39519;DHT22;25200;53.394;10.414;2023-07-16T09:50:04;25.10;58.50
39519;DHT22;25200;53.394;10.414;2023-07-16T09:52:32;25.30;58.70
39519;DHT22;25200;53.394;10.414;2023-07-16T09:55:01;25.50;58.00
39519;DHT22;25200;53.394;10.414;2023-07-16T09:57:30;25.50;57.90
39519;DHT22;25200;53.394;10.414;2023-07-16T10:00:00;25.60;57.30
39519;DHT22;25200;53.394;10.414;2023-07-16T10:02:33;25.60;58.10
39519;DHT22;25200;53.394;10.414;2023-07-16T10:05:00;25.60;57.40
39519;DHT22;25200;53.394;10.414;2023-07-16T10:07:25;25.50;57.30
39519;DHT22;25200;53.394;10.414;2023-07-16T10:09:56;25.60;58.50
39519;DHT22;25200;53.394;10.414;2023-07-16T10:12:26;25.90;58.50
39519;DHT22;25200;53.394;10.414;2023-07-16T10:14:53;26.10;57.90
39519;DHT22;25200;53.394;10.414;2023-07-16T10:17:24;26.40;57.60
39519;DHT22;25200;53.394;10.414;2023-07-16T10:22:51;26.60;57.60
39519;DHT22;25200;53.394;10.414;2023-07-16T10:27:44;26.80;57.40
39519;DHT22;25200;53.394;10.414;2023-07-16T10:30:10;26.70;56.70
39519;DHT22;25200;53.394;10.414;2023-07-16T10:32:36;26.70;56.20
39519;DHT22;25200;53.394;10.414;2023-07-16T10:35:03;27.00;56.30
39519;DHT22;25200;53.394;10.414;2023-07-16T10:37:29;27.10;55.10
39519;DHT22;25200;53.394;10.414;2023-07-16T10:39:58;27.30;56.20
39519;DHT22;25200;53.394;10.414;2023-07-16T10:42:25;27.70;55.50
39519;DHT22;25200;53.394;10.414;2023-07-16T10:44:52;27.90;55.10
39519;DHT22;25200;53.394;10.414;2023-07-16T10:47:20;28.20;55.20
39519;DHT22;25200;53.394;10.414;2023-07-16T10:49:46;28.50;52.50
39519;DHT22;25200;53.394;10.414;2023-07-16T10:52:12;28.70;55.30
39519;DHT22;25200;53.394;10.414;2023-07-16T10:54:40;28.90;55.30
39519;DHT22;25200;53.394;10.414;2023-07-16T10:57:06;29.00;55.70
39519;DHT22;25200;53.394;10.414;2023-07-16T10:59:32;29.20;55.30
39519;DHT22;25200;53.394;10.414;2023-07-16T11:01:58;29.10;54.60
39519;DHT22;25200;53.394;10.414;2023-07-16T11:04:24;29.00;55.00
39519;DHT22;25200;53.394;10.414;2023-07-16T11:06:52;29.00;54.60
39519;DHT22;25200;53.394;10.414;2023-07-16T11:09:18;28.90;54.70
39519;DHT22;25200;53.394;10.414;2023-07-16T11:11:43;28.80;53.60
39519;DHT22;25200;53.394;10.414;2023-07-16T11:14:09;28.60;53.00
39519;DHT22;25200;53.394;10.414;2023-07-16T11:16:36;28.20;53.30
39519;DHT22;25200;53.394;10.414;2023-07-16T11:19:05;28.00;53.50
39519;DHT22;25200;53.394;10.414;2023-07-16T11:21:33;28.10;54.20
39519;DHT22;25200;53.394;10.414;2023-07-16T11:24:14;28.10;52.80
39519;DHT22;25200;53.394;10.414;2023-07-16T11:26:50;28.00;53.90
39519;DHT22;25200;53.394;10.414;2023-07-16T11:29:16;28.10;53.40
39519;DHT22;25200;53.394;10.414;2023-07-16T11:31:41;28.00;52.80
39519;DHT22;25200;53.394;10.414;2023-07-16T11:34:08;27.80;52.40
39519;DHT22;25200;53.394;10.414;2023-07-16T11:36:38;27.70;53.00
39519;DHT22;25200;53.394;10.414;2023-07-16T11:39:03;27.60;53.10
39519;DHT22;25200;53.394;10.414;2023-07-16T11:41:30;27.90;54.00
39519;DHT22;25200;53.394;10.414;2023-07-16T11:43:59;27.90;53.30
39519;DHT22;25200;53.394;10.414;2023-07-16T11:46:31;27.90;53.50
39519;DHT22;25200;53.394;10.414;2023-07-16T11:48:58;27.90;53.60
39519;DHT22;25200;53.394;10.414;2023-07-16T11:51:24;28.00;54.00
39519;DHT22;25200;53.394;10.414;2023-07-16T11:53:50;28.10;53.50
39519;DHT22;25200;53.394;10.414;2023-07-16T11:56:15;28.10;53.30
39519;DHT22;25200;53.394;10.414;2023-07-16T11:58:41;28.10;53.40
39519;DHT22;25200;53.394;10.414;2023-07-16T12:01:07;28.00;53.00
39519;DHT22;25200;53.394;10.414;2023-07-16T12:03:32;28.00;52.60
39519;DHT22;25200;53.394;10.414;2023-07-16T12:05:58;28.00;53.10
39519;DHT22;25200;53.394;10.414;2023-07-16T12:08:24;28.20;53.30
39519;DHT22;25200;53.394;10.414;2023-07-16T12:10:49;28.20;53.10
39519;DHT22;25200;53.394;10.414;2023-07-16T12:13:15;28.10;52.70
39519;DHT22;25200;53.394;10.414;2023-07-16T12:15:41;27.90;52.00
39519;DHT22;25200;53.394;10.414;2023-07-16T12:18:06;27.70;52.50
39519;DHT22;25200;53.394;10.414;2023-07-16T12:20:34;27.60;52.80
39519;DHT22;25200;53.394;10.414;2023-07-16T12:23:00;27.90;53.90
39519;DHT22;25200;53.394;10.414;2023-07-16T12:25:25;28.10;53.90
39519;DHT22;25200;53.394;10.414;2023-07-16T12:27:51;28.10;53.40
39519;DHT22;25200;53.394;10.414;2023-07-16T12:30:17;28.10;53.00
39519;DHT22;25200;53.394;10.414;2023-07-16T12:32:42;28.00;52.00
39519;DHT22;25200;53.394;10.414;2023-07-16T12:35:09;27.90;52.50
39519;DHT22;25200;53.394;10.414;2023-07-16T12:37:34;27.80;52.80
39519;DHT22;25200;53.394;10.414;2023-07-16T12:40:00;27.70;52.30
39519;DHT22;25200;53.394;10.414;2023-07-16T12:42:25;27.60;52.40
39519;DHT22;25200;53.394;10.414;2023-07-16T12:44:51;27.60;52.90
39519;DHT22;25200;53.394;10.414;2023-07-16T12:47:17;27.50;52.70
39519;DHT22;25200;53.394;10.414;2023-07-16T12:49:43;27.50;52.80
39519;DHT22;25200;53.394;10.414;2023-07-16T12:52:09;27.40;52.60
39519;DHT22;25200;53.394;10.414;2023-07-16T12:54:34;27.30;52.50
39519;DHT22;25200;53.394;10.414;2023-07-16T12:57:00;27.30;52.10
39519;DHT22;25200;53.394;10.414;2023-07-16T12:59:26;27.20;52.50
39519;DHT22;25200;53.394;10.414;2023-07-16T13:01:51;27.20;52.70
39519;DHT22;25200;53.394;10.414;2023-07-16T13:04:17;27.40;53.00
39519;DHT22;25200;53.394;10.414;2023-07-16T13:06:43;27.80;53.50
39519;DHT22;25200;53.394;10.414;2023-07-16T13:09:13;28.00;52.90
39519;DHT22;25200;53.394;10.414;2023-07-16T13:11:39;28.10;52.70
39519;DHT22;25200;53.394;10.414;2023-07-16T13:14:05;28.10;52.00
39519;DHT22;25200;53.394;10.414;2023-07-16T13:16:30;28.00;52.70
39519;DHT22;25200;53.394;10.414;2023-07-16T13:18:56;28.00;52.10
39519;DHT22;25200;53.394;10.414;2023-07-16T13:21:21;27.90;52.30
39519;DHT22;25200;53.394;10.414;2023-07-16T13:23:47;27.90;52.30
39519;DHT22;25200;53.394;10.414;2023-07-16T13:26:13;27.90;52.40
39519;DHT22;25200;53.394;10.414;2023-07-16T13:28:38;27.90;52.00
39519;DHT22;25200;53.394;10.414;2023-07-16T13:31:05;27.90;52.40
39519;DHT22;25200;53.394;10.414;2023-07-16T13:33:31;28.00;53.00
39519;DHT22;25200;53.394;10.414;2023-07-16T13:35:56;28.10;52.40
39519;DHT22;25200;53.394;10.414;2023-07-16T13:38:25;28.20;52.90
39519;DHT22;25200;53.394;10.414;2023-07-16T13:40:51;28.20;52.10
39519;DHT22;25200;53.394;10.414;2023-07-16T13:43:16;28.10;52.30
39519;DHT22;25200;53.394;10.414;2023-07-16T13:45:42;28.10;52.20
39519;DHT22;25200;53.394;10.414;2023-07-16T13:48:08;28.30;52.70
39519;DHT22;25200;53.394;10.414;2023-07-16T13:50:33;28.50;52.50
39519;DHT22;25200;53.394;10.414;2023-07-16T13:52:59;28.60;52.70
39519;DHT22;25200;53.394;10.414;2023-07-16T13:55:27;28.70;52.50
39519;DHT22;25200;53.394;10.414;2023-07-16T13:57:53;28.70;52.40
39519;DHT22;25200;53.394;10.414;2023-07-16T14:00:21;28.90;52.30
39519;DHT22;25200;53.394;10.414;2023-07-16T14:02:46;29.10;52.40
39519;DHT22;25200;53.394;10.414;2023-07-16T14:05:12;29.00;52.20
39519;DHT22;25200;53.394;10.414;2023-07-16T14:07:38;29.00;52.40
39519;DHT22;25200;53.394;10.414;2023-07-16T14:10:04;28.90;52.00
39519;DHT22;25200;53.394;10.414;2023-07-16T14:12:30;28.90;51.50
39519;DHT22;25200;53.394;10.414;2023-07-16T14:14:56;28.70;51.10
39519;DHT22;25200;53.394;10.414;2023-07-16T14:17:22;28.60;51.60
39519;DHT22;25200;53.394;10.414;2023-07-16T14:19:49;28.50;51.40
39519;DHT22;25200;53.394;10.414;2023-07-16T14:22:15;28.40;51.80
39519;DHT22;25200;53.394;10.414;2023-07-16T14:24:41;28.40;52.10
39519;DHT22;25200;53.394;10.414;2023-07-16T14:27:07;28.30;51.80
39519;DHT22;25200;53.394;10.414;2023-07-16T14:29:36;28.20;51.90
39519;DHT22;25200;53.394;10.414;2023-07-16T14:32:02;28.10;51.70
39519;DHT22;25200;53.394;10.414;2023-07-16T14:34:28;28.00;52.00
39519;DHT22;25200;53.394;10.414;2023-07-16T14:36:53;27.90;52.00
39519;DHT22;25200;53.394;10.414;2023-07-16T14:39:19;27.90;52.00
39519;DHT22;25200;53.394;10.414;2023-07-16T14:41:45;27.80;52.20
39519;DHT22;25200;53.394;10.414;2023-07-16T14:44:11;27.80;52.10
39519;DHT22;25200;53.394;10.414;2023-07-16T14:46:36;27.80;52.30
39519;DHT22;25200;53.394;10.414;2023-07-16T14:49:03;27.80;51.90
39519;DHT22;25200;53.394;10.414;2023-07-16T14:51:29;27.70;52.20
39519;DHT22;25200;53.394;10.414;2023-07-16T14:53:55;27.70;52.30
39519;DHT22;25200;53.394;10.414;2023-07-16T14:56:21;27.60;52.30
39519;DHT22;25200;53.394;10.414;2023-07-16T14:58:47;27.60;52.40
39519;DHT22;25200;53.394;10.414;2023-07-16T15:01:13;27.50;52.40
39519;DHT22;25200;53.394;10.414;2023-07-16T15:03:39;27.50;52.40
39519;DHT22;25200;53.394;10.414;2023-07-16T15:06:08;27.40;52.30
39519;DHT22;25200;53.394;10.414;2023-07-16T15:08:35;27.40;52.30
39519;DHT22;25200;53.394;10.414;2023-07-16T15:11:01;27.30;52.40
39519;DHT22;25200;53.394;10.414;2023-07-16T15:13:26;27.30;52.60
39519;DHT22;25200;53.394;10.414;2023-07-16T15:15:54;27.20;52.70
39519;DHT22;25200;53.394;10.414;2023-07-16T15:18:20;27.20;52.80
39519;DHT22;25200;53.394;10.414;2023-07-16T15:20:47;27.30;52.90
39519;DHT22;25200;53.394;10.414;2023-07-16T15:23:13;27.30;52.50
39519;DHT22;25200;53.394;10.414;2023-07-16T15:25:42;27.30;52.70